Time;durP1;ratioP1;P1;durP2;ratioP2;P2;SDS_P1;SDS_P2;PMS_P1;PMS_P2;Temp;Humidity;BMP_temperature;BMP_pressure;BME280_temperature;BME280_humidity;BME280_pressure;Samples;Min_cycle;Max_cycle;Signal;HPM_P1;HPM_P2
2020/12/11 00:00:48;;;;;;;3.67;3.33;;;23.20;32.60;;;;;;5031091;28;20887;-58
2020/12/11 00:03:14;;;;;;;4.07;3.38;;;23.20;32.60;;;;;;5031483;28;20394;-58
2020/12/11 00:05:40;;;;;;;4.20;3.30;;;23.10;32.60;;;;;;5030641;28;20434;-58
2020/12/11 00:08:08;;;;;;;3.87;3.40;;;23.10;32.60;;;;;;5033830;28;20398;-58
2020/12/11 00:10:34;;;;;;;3.55;3.25;;;23.10;32.70;;;;;;5034659;28;20472;-58
2020/12/11 00:13:00;;;;;;;3.67;3.37;;;23.00;32.60;;;;;;5034819;28;20894;-58
2020/12/11 00:15:25;;;;;;;3.67;3.28;;;23.00;32.70;;;;;;5032245;28;20540;-58
2020/12/11 00:17:51;;;;;;;4.70;3.37;;;23.00;32.70;;;;;;5034489;28;20390;-57
2020/12/11 00:20:16;;;;;;;3.70;3.30;;;23.00;32.70;;;;;;5034448;28;20399;-58
2020/12/11 00:22:42;;;;;;;3.47;3.17;;;22.90;32.70;;;;;;5034532;28;20739;-58
2020/12/11 00:25:08;;;;;;;3.50;3.20;;;22.90;32.70;;;;;;5034422;28;20403;-57
2020/12/11 00:27:34;;;;;;;3.58;3.17;;;22.90;32.70;;;;;;5034472;28;20393;-58
2020/12/11 00:29:59;;;;;;;3.75;3.22;;;22.80;32.70;;;;;;5034013;28;20402;-58
2020/12/11 00:32:25;;;;;;;3.37;3.00;;;22.80;32.70;;;;;;5034246;28;20746;-59
2020/12/11 00:34:51;;;;;;;3.88;3.45;;;22.80;32.80;;;;;;5034291;28;20411;-57
2020/12/11 00:37:16;;;;;;;3.40;3.10;;;22.80;32.80;;;;;;5034379;28;20773;-57
2020/12/11 00:39:42;;;;;;;3.50;3.20;;;22.70;32.70;;;;;;5034319;28;20391;-57
2020/12/11 00:42:07;;;;;;;3.47;3.05;;;22.70;32.80;;;;;;5015349;28;20840;-57
2020/12/11 00:44:33;;;;;;;3.60;2.90;;;22.70;32.80;;;;;;5034164;28;20403;-58
2020/12/11 00:47:05;;;;;;;3.40;3.00;;;22.70;32.80;;;;;;5034231;28;20501;-58
2020/12/11 00:49:31;;;;;;;3.37;3.07;;;22.60;32.80;;;;;;5034062;28;20452;-57
2020/12/11 00:51:57;;;;;;;3.50;3.20;;;22.60;32.80;;;;;;5033568;28;20388;-57
2020/12/11 00:54:22;;;;;;;3.35;2.95;;;22.60;32.80;;;;;;5033919;28;20805;-58
2020/12/11 00:56:48;;;;;;;3.40;3.10;;;22.60;32.80;;;;;;5033998;28;20863;-57
2020/12/11 00:59:14;;;;;;;3.10;2.80;;;22.50;32.80;;;;;;5033299;28;20398;-57
2020/12/11 01:01:39;;;;;;;3.13;2.83;;;22.50;32.90;;;;;;5033761;28;20794;-58
2020/12/11 01:04:05;;;;;;;3.10;2.80;;;22.50;32.90;;;;;;5033490;28;20391;-58
2020/12/11 01:06:31;;;;;;;3.17;2.80;;;22.50;32.90;;;;;;5033694;28;20387;-57
2020/12/11 01:08:57;;;;;;;3.65;3.00;;;22.40;32.80;;;;;;5033855;28;20398;-57
2020/12/11 01:11:22;;;;;;;3.35;2.95;;;22.40;32.90;;;;;;5032198;28;20502;-57
2020/12/11 01:13:48;;;;;;;2.80;2.60;;;22.40;33.50;;;;;;5033720;28;20406;-58
2020/12/11 01:16:13;;;;;;;3.10;2.80;;;22.40;32.90;;;;;;5033020;28;20406;-57
2020/12/11 01:18:39;;;;;;;3.10;2.80;;;22.40;32.90;;;;;;5033480;28;20479;-58
2020/12/11 01:21:05;;;;;;;3.00;2.67;;;22.40;32.90;;;;;;5033454;28;20437;-58
2020/12/11 01:23:30;;;;;;;3.55;2.75;;;22.30;32.90;;;;;;5033539;28;20414;-57
2020/12/11 01:25:56;;;;;;;3.87;2.80;;;22.30;32.90;;;;;;5015140;28;20407;-58
2020/12/11 01:28:21;;;;;;;2.70;2.50;;;22.30;33.00;;;;;;5033439;28;20863;-57
2020/12/11 01:30:47;;;;;;;3.08;2.78;;;22.30;33.00;;;;;;5033390;28;20487;-57
2020/12/11 01:33:12;;;;;;;3.00;2.70;;;22.20;33.00;;;;;;5033290;28;20437;-57
2020/12/11 01:35:38;;;;;;;3.25;2.90;;;22.20;33.00;;;;;;5033186;28;20437;-57
2020/12/11 01:38:04;;;;;;;3.17;2.87;;;22.20;33.00;;;;;;5032945;28;20391;-57
2020/12/11 01:40:37;;;;;;;2.72;2.53;;;22.20;33.10;;;;;;5033501;28;20387;-57
2020/12/11 01:43:03;;;;;;;2.50;2.30;;;22.10;33.70;;;;;;5033541;28;20437;-58
2020/12/11 01:45:29;;;;;;;3.00;2.70;;;22.10;33.00;;;;;;5032040;28;20813;-57
2020/12/11 01:47:54;;;;;;;2.92;2.63;;;22.10;33.10;;;;;;5032869;28;21156;-57
2020/12/11 01:50:20;;;;;;;2.90;2.55;;;22.10;33.10;;;;;;5032729;28;20914;-58
2020/12/11 01:52:47;;;;;;;3.00;2.70;;;22.00;33.10;;;;;;5032956;28;20523;-57
2020/12/11 01:55:13;;;;;;;3.10;2.80;;;22.00;33.20;;;;;;5033094;28;20419;-57
2020/12/11 01:58:05;;;;;;;3.05;2.70;;;22.00;33.10;;;;;;5032695;28;20394;-57
2020/12/11 02:00:31;;;;;;;2.92;2.63;;;22.00;33.10;;;;;;5025198;28;20498;-57
2020/12/11 02:03:05;;;;;;;3.67;2.70;;;22.00;33.10;;;;;;5032564;28;20874;-58
2020/12/11 02:05:31;;;;;;;2.67;2.45;;;21.90;33.10;;;;;;5032517;28;20529;-58
2020/12/11 02:08:01;;;;;;;3.00;2.70;;;21.90;33.20;;;;;;5032366;28;21004;-57
2020/12/11 02:10:27;;;;;;;2.85;2.58;;;21.90;33.20;;;;;;5032364;28;20387;-58
2020/12/11 02:12:53;;;;;;;2.63;2.42;;;21.90;33.80;;;;;;5032234;28;20437;-57
2020/12/11 02:15:19;;;;;;;2.63;2.30;;;21.90;33.50;;;;;;5032335;28;20446;-57
2020/12/11 02:17:45;;;;;;;2.58;2.35;;;21.90;33.30;;;;;;5032222;28;20422;-57
2020/12/11 02:20:11;;;;;;;3.10;2.45;;;21.80;33.30;;;;;;5031767;28;20403;-57
2020/12/11 02:22:36;;;;;;;2.67;2.40;;;21.80;33.30;;;;;;5032076;28;20474;-57
2020/12/11 02:25:03;;;;;;;2.90;2.60;;;21.80;33.60;;;;;;5032012;28;20399;-58
2020/12/11 02:27:28;;;;;;;2.72;2.53;;;21.80;33.30;;;;;;5031443;28;20742;-58
2020/12/11 02:29:54;;;;;;;2.77;2.57;;;21.80;33.80;;;;;;5031347;28;20932;-58
2020/12/11 02:32:20;;;;;;;2.97;2.40;;;21.70;33.50;;;;;;5031758;28;20383;-57
2020/12/11 02:34:46;;;;;;;2.80;2.50;;;21.70;33.30;;;;;;5032245;28;20506;-57
2020/12/11 02:37:13;;;;;;;3.13;2.83;;;21.70;33.50;;;;;;5032147;28;20379;-57
2020/12/11 02:39:38;;;;;;;2.65;2.45;;;21.70;34.10;;;;;;5032144;28;20406;-57
2020/12/11 02:42:05;;;;;;;3.03;2.72;;;21.70;34.30;;;;;;5031539;28;20387;-58
2020/12/11 02:44:32;;;;;;;2.78;2.53;;;21.60;34.20;;;;;;5031817;28;20834;-58
2020/12/11 02:46:58;;;;;;;3.17;2.87;;;21.60;34.00;;;;;;5031974;28;20932;-58
2020/12/11 02:49:23;;;;;;;3.08;2.75;;;21.60;33.90;;;;;;5031815;28;20482;-58
2020/12/11 02:51:49;;;;;;;2.97;2.72;;;21.60;34.20;;;;;;5032004;28;20879;-57
2020/12/11 02:54:14;;;;;;;3.07;2.77;;;21.60;34.20;;;;;;5031157;28;20874;-57
2020/12/11 02:56:40;;;;;;;2.80;2.60;;;21.60;33.60;;;;;;5031909;28;20399;-58
2020/12/11 02:59:06;;;;;;;2.93;2.63;;;21.50;34.30;;;;;;5031723;28;20383;-57
2020/12/11 03:01:31;;;;;;;2.95;2.65;;;21.50;33.80;;;;;;5031893;28;20420;-58
2020/12/11 03:03:58;;;;;;;2.77;2.57;;;21.50;33.60;;;;;;5031650;28;20387;-58
2020/12/11 03:06:28;;;;;;;3.20;2.90;;;21.40;33.50;;;;;;5031365;28;20379;-57
2020/12/11 03:08:54;;;;;;;3.07;2.77;;;21.40;33.80;;;;;;5031641;28;20383;-57
2020/12/11 03:11:20;;;;;;;2.85;2.60;;;21.40;33.70;;;;;;5013587;28;20465;-57
2020/12/11 03:13:46;;;;;;;2.65;2.40;;;21.40;34.20;;;;;;5031580;28;20387;-58
2020/12/11 03:16:12;;;;;;;2.60;2.40;;;21.50;33.50;;;;;;5031121;28;20391;-58
2020/12/11 03:18:37;;;;;;;2.88;2.58;;;21.50;33.60;;;;;;5031350;28;20394;-57
2020/12/11 03:21:03;;;;;;;2.70;2.50;;;21.60;33.50;;;;;;5030466;28;20387;-58
2020/12/11 03:23:29;;;;;;;3.00;2.70;;;21.70;33.40;;;;;;5031309;28;20873;-58
2020/12/11 03:25:55;;;;;;;3.00;2.60;;;21.70;33.60;;;;;;5031227;28;20399;-58
2020/12/11 03:28:21;;;;;;;3.00;2.70;;;21.70;33.60;;;;;;5030789;28;20388;-57
2020/12/11 03:30:46;;;;;;;2.88;2.58;;;21.80;33.70;;;;;;5031164;28;20937;-59
2020/12/11 03:33:12;;;;;;;3.10;2.80;;;21.80;33.70;;;;;;5030567;28;20434;-57
2020/12/11 03:35:37;;;;;;;3.00;2.70;;;21.80;33.70;;;;;;5030974;28;20427;-58
2020/12/11 03:38:04;;;;;;;3.30;2.97;;;21.80;33.60;;;;;;5030937;28;20836;-57
2020/12/11 03:40:29;;;;;;;3.25;2.80;;;21.80;33.50;;;;;;5031252;28;20859;-59
2020/12/11 03:42:55;;;;;;;3.35;3.03;;;21.90;33.50;;;;;;5033105;28;20402;-58
2020/12/11 03:45:21;;;;;;;2.80;2.50;;;21.90;33.30;;;;;;5035144;28;20395;-59
2020/12/11 03:47:46;;;;;;;2.92;2.63;;;21.90;33.30;;;;;;5035337;28;20390;-58
2020/12/11 03:50:12;;;;;;;3.30;2.77;;;21.90;33.30;;;;;;5033779;28;20744;-57
2020/12/11 03:52:37;;;;;;;3.17;2.83;;;21.90;33.30;;;;;;5035187;28;20417;-58
2020/12/11 03:55:03;;;;;;;2.90;2.57;;;21.90;33.20;;;;;;5035221;28;20547;-58
2020/12/11 03:57:29;;;;;;;3.65;2.90;;;21.90;33.10;;;;;;5033149;28;20858;-58
2020/12/11 03:59:55;;;;;;;3.77;2.90;;;21.90;33.10;;;;;;5034347;28;20404;-59
2020/12/11 04:02:20;;;;;;;4.25;2.70;;;21.90;32.90;;;;;;5033090;28;20394;-58
2020/12/11 04:04:46;;;;;;;3.90;2.77;;;21.90;33.40;;;;;;5034980;28;20806;-58
2020/12/11 04:07:12;;;;;;;4.13;2.70;;;21.90;33.40;;;;;;5034617;28;20415;-57
2020/12/11 04:09:38;;;;;;;3.53;2.80;;;22.00;33.80;;;;;;4959154;28;20420;-57
2020/12/11 04:12:04;;;;;;;2.90;2.50;;;22.00;33.20;;;;;;5023090;28;20505;-58
2020/12/11 04:14:30;;;;;;;3.20;2.90;;;22.10;33.40;;;;;;5033001;28;21049;-58
2020/12/11 04:16:59;;;;;;;4.47;2.70;;;22.10;33.40;;;;;;5033617;28;20418;-58
2020/12/11 04:19:25;;;;;;;3.88;2.83;;;22.10;34.20;;;;;;5033774;28;20402;-58
2020/12/11 04:21:51;;;;;;;4.20;2.97;;;22.20;33.90;;;;;;5033235;28;20929;-57
2020/12/11 04:24:18;;;;;;;5.88;2.97;;;22.20;33.90;;;;;;5033442;28;20387;-58
2020/12/11 04:26:44;;;;;;;4.88;2.85;;;22.20;34.10;;;;;;5034277;28;20863;-57
2020/12/11 04:29:10;;;;;;;6.50;2.95;;;22.20;34.10;;;;;;5034303;28;20383;-57
2020/12/11 04:31:36;;;;;;;5.13;3.00;;;22.20;34.10;;;;;;5034212;28;20391;-58
2020/12/11 04:34:02;;;;;;;4.03;2.90;;;22.20;34.10;;;;;;5032211;28;20411;-58
2020/12/11 04:36:28;;;;;;;7.80;2.83;;;22.20;34.50;;;;;;5031907;28;20755;-58
2020/12/11 04:38:54;;;;;;;3.47;2.20;;;22.20;34.80;;;;;;5032260;28;20383;-58
2020/12/11 04:41:20;;;;;;;5.93;2.77;;;22.30;34.40;;;;;;5031324;28;20905;-58
2020/12/11 04:43:50;;;;;;;7.38;2.65;;;22.30;35.60;;;;;;5032145;28;20387;-57
2020/12/11 04:46:16;;;;;;;9.27;2.90;;;22.30;36.90;;;;;;5031764;28;20402;-58
2020/12/11 04:48:42;;;;;;;11.90;3.03;;;22.40;36.10;;;;;;5032775;28;20751;-57
2020/12/11 04:51:09;;;;;;;6.37;2.80;;;22.40;36.40;;;;;;5034136;28;20391;-58
2020/12/11 04:53:36;;;;;;;5.75;2.60;;;22.30;36.30;;;;;;5033291;28;20982;-58
2020/12/11 04:56:05;;;;;;;5.07;2.65;;;22.40;36.00;;;;;;5033812;28;20854;-58
2020/12/11 04:58:32;;;;;;;6.00;2.80;;;22.30;35.80;;;;;;5033620;28;20883;-57
2020/12/11 05:01:03;;;;;;;5.57;2.70;;;22.30;35.20;;;;;;5033963;28;20403;-58
2020/12/11 05:03:33;;;;;;;5.40;2.80;;;22.30;35.60;;;;;;5033187;28;20466;-58
2020/12/11 05:05:59;;;;;;;4.68;2.72;;;22.30;35.60;;;;;;5033084;28;20422;-58
2020/12/11 05:08:26;;;;;;;5.93;2.95;;;22.30;35.50;;;;;;5032532;28;20403;-59
2020/12/11 05:10:51;;;;;;;4.73;2.50;;;22.30;35.50;;;;;;5033704;28;20407;-58
2020/12/11 05:13:25;;;;;;;4.30;2.50;;;22.30;35.30;;;;;;5033705;28;20394;-57
2020/12/11 05:16:08;;;;;;;3.30;2.60;;;22.30;35.20;;;;;;5033434;28;20429;-58
2020/12/11 05:18:35;;;;;;;5.10;2.70;;;22.30;35.10;;;;;;5030998;28;20425;-58
2020/12/11 05:21:26;;;;;;;4.43;2.63;;;22.30;35.20;;;;;;5031245;28;20399;-58
2020/12/11 05:24:01;;;;;;;2.97;2.67;;;22.30;35.10;;;;;;5033232;28;20379;-58
2020/12/11 05:26:28;;;;;;;4.68;2.45;;;22.30;35.00;;;;;;5033075;28;20395;-58
2020/12/11 05:28:54;;;;;;;4.82;2.58;;;22.30;34.90;;;;;;5033412;28;20871;-58
2020/12/11 05:31:19;;;;;;;3.40;2.47;;;22.30;35.30;;;;;;5031358;28;20403;-58
2020/12/11 05:34:03;;;;;;;4.03;2.40;;;22.30;34.70;;;;;;5032997;28;20487;-58
2020/12/11 05:36:46;;;;;;;3.90;2.50;;;22.30;34.20;;;;;;5032660;28;20399;-59
2020/12/11 05:39:15;;;;;;;3.58;2.60;;;22.40;34.50;;;;;;5033109;28;20411;-58
2020/12/11 05:41:41;;;;;;;4.72;2.55;;;22.40;33.90;;;;;;5032993;28;20411;-58
2020/12/11 05:44:25;;;;;;;6.50;2.63;;;22.40;34.40;;;;;;5032593;28;20839;-58
2020/12/11 05:46:51;;;;;;;6.13;2.60;;;22.40;34.20;;;;;;5032787;28;20898;-58
2020/12/11 05:49:24;;;;;;;4.80;2.50;;;22.40;34.10;;;;;;5032755;28;20406;-58
2020/12/11 05:51:56;;;;;;;5.35;2.67;;;22.30;34.00;;;;;;5032673;28;20392;-58
2020/12/11 05:54:23;;;;;;;3.55;2.33;;;22.30;34.00;;;;;;5032375;28;20398;-58
2020/12/11 05:56:51;;;;;;;3.58;2.50;;;22.30;33.90;;;;;;5032696;28;20465;-59
2020/12/11 05:59:20;;;;;;;3.50;2.40;;;22.20;33.80;;;;;;5032789;28;20923;-58
2020/12/11 06:01:49;;;;;;;4.13;2.30;;;22.30;33.80;;;;;;5032792;28;20399;-59
2020/12/11 06:04:17;;;;;;;2.72;2.20;;;22.20;33.70;;;;;;5031372;28;20410;-58
2020/12/11 06:06:45;;;;;;;3.92;2.42;;;22.20;33.60;;;;;;5032522;28;20926;-58
2020/12/11 06:09:13;;;;;;;3.10;2.30;;;22.20;33.60;;;;;;5032684;28;20474;-58
2020/12/11 06:11:49;;;;;;;3.20;2.10;;;22.20;33.60;;;;;;5032240;28;20408;-59
2020/12/11 06:14:26;;;;;;;3.30;2.15;;;22.20;33.50;;;;;;5032116;28;20775;-59
2020/12/11 06:16:56;;;;;;;2.58;2.28;;;22.20;33.60;;;;;;5032568;28;20433;-58
2020/12/11 06:19:22;;;;;;;3.40;2.22;;;22.10;33.40;;;;;;5032080;28;20426;-58
2020/12/11 06:21:48;;;;;;;3.00;2.35;;;22.10;33.30;;;;;;5032165;28;20387;-58
2020/12/11 06:24:27;;;;;;;6.50;2.60;;;22.20;33.40;;;;;;5032057;28;20396;-58
2020/12/11 06:27:00;;;;;;;4.40;2.70;;;22.10;33.40;;;;;;5032158;28;20379;-58
2020/12/11 06:29:30;;;;;;;3.47;2.80;;;22.10;33.50;;;;;;5031813;28;20823;-58
2020/12/11 06:31:57;;;;;;;5.25;3.10;;;22.10;33.30;;;;;;5032296;28;20379;-58
2020/12/11 06:34:24;;;;;;;6.07;2.90;;;22.20;33.00;;;;;;5031396;28;20419;-58
2020/12/11 06:36:53;;;;;;;6.13;2.92;;;22.20;33.60;;;;;;5031574;28;20420;-58
2020/12/11 06:39:51;;;;;;;7.05;2.70;;;22.20;34.80;;;;;;5029472;28;20398;-59
2020/12/11 06:42:34;;;;;;;5.88;2.75;;;22.20;35.00;;;;;;4987436;28;20891;-58
2020/12/11 06:45:15;;;;;;;7.28;3.00;;;22.20;35.10;;;;;;5031525;28;20430;-58
2020/12/11 06:47:50;;;;;;;4.63;2.67;;;22.30;35.20;;;;;;5031816;28;20933;-58
2020/12/11 06:50:17;;;;;;;7.00;2.60;;;22.30;35.20;;;;;;5031131;28;20520;-57
2020/12/11 06:52:43;;;;;;;8.93;2.70;;;22.20;34.60;;;;;;5031027;28;20462;-57
2020/12/11 06:55:09;;;;;;;4.57;2.35;;;22.20;34.80;;;;;;5031150;28;20414;-57
2020/12/11 06:57:37;;;;;;;9.57;2.90;;;22.20;34.90;;;;;;5031809;28;20410;-57
2020/12/11 07:00:27;;;;;;;10.00;3.00;;;22.20;35.40;;;;;;5031145;28;20434;-57
2020/12/11 07:03:12;;;;;;;7.65;2.90;;;22.20;35.80;;;;;;5031650;28;20889;-57
2020/12/11 07:05:37;;;;;;;5.47;2.70;;;22.20;36.10;;;;;;5031733;28;20394;-57
2020/12/11 07:08:09;;;;;;;9.80;2.93;;;22.20;36.00;;;;;;5031776;28;20735;-57
2020/12/11 07:10:35;;;;;;;9.38;2.70;;;22.20;35.80;;;;;;5031298;28;20732;-57
2020/12/11 07:13:05;;;;;;;6.87;2.80;;;22.20;36.00;;;;;;5031760;28;20936;-57
2020/12/11 07:15:31;;;;;;;5.07;2.50;;;22.20;35.60;;;;;;5031316;28;20894;-57
2020/12/11 07:17:57;;;;;;;6.97;2.73;;;22.20;36.00;;;;;;5031497;28;20393;-57
2020/12/11 07:20:23;;;;;;;4.32;2.60;;;22.20;36.50;;;;;;5031068;28;20391;-57
2020/12/11 07:22:50;;;;;;;9.23;2.78;;;22.20;35.90;;;;;;5031558;28;20410;-57
2020/12/11 07:25:16;;;;;;;7.10;2.70;;;22.20;35.50;;;;;;5031405;28;20395;-57
2020/12/11 07:27:55;;;;;;;5.67;2.60;;;22.20;35.50;;;;;;5031311;28;20410;-57
2020/12/11 07:30:21;;;;;;;6.50;2.60;;;22.20;35.90;;;;;;5029679;28;20399;-57
2020/12/11 07:32:51;;;;;;;11.37;4.57;;;22.30;35.00;;;;;;5031468;28;20382;-57
2020/12/11 07:35:17;;;;;;;9.63;3.40;;;22.20;34.10;;;;;;5031400;28;20466;-57
2020/12/11 07:37:54;;;;;;;7.80;3.22;;;22.20;34.30;;;;;;5031403;28;20470;-57
2020/12/11 07:40:20;;;;;;;6.40;3.30;;;22.20;33.90;;;;;;5030906;28;20395;-57
2020/12/11 07:42:48;;;;;;;6.70;3.13;;;22.10;33.30;;;;;;5031665;28;20383;-57
2020/12/11 07:45:37;;;;;;;4.55;3.00;;;22.10;33.90;;;;;;5031523;28;20498;-57
2020/12/11 07:48:04;;;;;;;5.75;3.03;;;22.10;33.20;;;;;;5031441;28;20387;-57
2020/12/11 07:50:31;;;;;;;5.70;3.10;;;22.10;33.10;;;;;;5030830;28;20935;-57
2020/12/11 07:52:58;;;;;;;6.10;3.10;;;22.10;33.00;;;;;;5031386;28;20475;-57
2020/12/11 07:55:28;;;;;;;4.35;2.92;;;22.10;32.80;;;;;;5031053;28;20910;-57
2020/12/11 07:57:55;;;;;;;5.13;2.80;;;22.00;32.90;;;;;;5031255;28;20394;-58
2020/12/11 08:00:22;;;;;;;6.57;3.20;;;22.10;32.80;;;;;;5030699;28;20395;-57
2020/12/11 08:02:57;;;;;;;4.38;2.50;;;22.10;32.50;;;;;;5031134;28;20391;-57
2020/12/11 08:05:24;;;;;;;8.48;2.75;;;22.10;32.60;;;;;;5031147;28;20423;-57
2020/12/11 08:07:53;;;;;;;4.22;2.65;;;22.00;32.40;;;;;;5031098;28;20388;-57
2020/12/11 08:10:24;;;;;;;3.55;2.75;;;22.10;32.40;;;;;;5030601;28;20477;-57
2020/12/11 08:12:51;;;;;;;3.78;2.95;;;22.00;32.30;;;;;;5031118;28;20819;-57
2020/12/11 08:15:36;;;;;;;4.38;2.80;;;22.10;32.30;;;;;;5030976;28;20485;-57
2020/12/11 08:18:05;;;;;;;3.88;2.90;;;22.00;32.10;;;;;;5030887;28;20402;-57
2020/12/11 08:20:52;;;;;;;3.90;2.80;;;22.00;32.10;;;;;;5030450;28;20379;-57
2020/12/11 08:23:25;;;;;;;4.47;2.67;;;22.10;32.30;;;;;;5029808;28;20894;-57
2020/12/11 08:26:19;;;;;;;4.15;2.88;;;22.00;31.90;;;;;;5030946;28;20383;-58
2020/12/11 08:28:48;;;;;;;3.70;3.00;;;22.00;32.00;;;;;;5033416;28;20402;-58
2020/12/11 08:31:27;;;;;;;3.90;2.72;;;22.10;32.00;;;;;;5034565;28;20476;-57
2020/12/11 08:34:07;;;;;;;4.47;3.00;;;22.10;31.90;;;;;;5034647;28;20898;-59
2020/12/11 08:36:36;;;;;;;5.43;3.25;;;22.10;31.90;;;;;;5033889;28;20409;-56
2020/12/11 08:39:05;;;;;;;4.70;3.60;;;22.10;31.90;;;;;;5016605;28;20786;-57
2020/12/11 08:41:31;;;;;;;4.18;3.13;;;22.10;31.80;;;;;;5034564;28;20402;-57
2020/12/11 08:43:57;;;;;;;4.88;3.40;;;22.20;32.00;;;;;;5034097;28;20390;-57
2020/12/11 08:46:51;;;;;;;5.25;3.53;;;22.20;32.00;;;;;;5032833;28;20391;-57
2020/12/11 08:49:21;;;;;;;4.32;3.25;;;22.20;32.60;;;;;;5033872;28;20387;-57
2020/12/11 08:51:47;;;;;;;3.90;3.28;;;22.30;32.10;;;;;;5034523;28;20399;-57
2020/12/11 08:54:14;;;;;;;5.13;3.28;;;22.30;31.70;;;;;;5034106;28;20411;-57
2020/12/11 08:56:46;;;;;;;6.20;3.35;;;22.30;31.80;;;;;;5033631;28;20418;-57
2020/12/11 08:59:11;;;;;;;6.68;3.45;;;22.30;31.90;;;;;;5033986;28;20867;-57
2020/12/11 09:01:41;;;;;;;5.45;3.38;;;22.40;31.80;;;;;;5033605;28;20395;-57
2020/12/11 09:04:06;;;;;;;6.50;3.67;;;22.40;31.80;;;;;;5034187;28;20383;-57
2020/12/11 09:06:32;;;;;;;5.80;3.50;;;22.40;31.90;;;;;;5033431;28;20477;-57
2020/12/11 09:08:58;;;;;;;4.83;3.50;;;22.40;32.00;;;;;;5033799;28;20863;-57
2020/12/11 09:11:23;;;;;;;6.47;3.60;;;22.40;32.00;;;;;;5033655;28;20399;-58
2020/12/11 09:13:49;;;;;;;6.47;3.58;;;22.50;32.00;;;;;;5033772;28;20932;-58
2020/12/11 09:16:14;;;;;;;4.90;3.47;;;22.50;31.80;;;;;;5033715;28;20403;-58
2020/12/11 09:18:40;;;;;;;5.75;3.28;;;22.50;31.80;;;;;;5033160;28;20878;-58
2020/12/11 09:21:05;;;;;;;6.50;3.83;;;22.50;31.70;;;;;;5032406;28;20407;-58
2020/12/11 09:23:31;;;;;;;5.37;3.47;;;22.40;31.50;;;;;;5033650;28;20402;-61
2020/12/11 09:25:57;;;;;;;4.10;3.15;;;22.50;31.50;;;;;;5033423;28;20434;-57
2020/12/11 09:28:24;;;;;;;6.93;3.20;;;22.50;31.50;;;;;;5032923;28;20438;-59
2020/12/11 09:30:50;;;;;;;4.60;3.30;;;22.40;31.60;;;;;;5033311;28;20495;-58
2020/12/11 09:35:41;;;;;;;5.32;3.35;;;22.50;31.60;;;;;;5033337;28;20426;-58
2020/12/11 09:38:07;;;;;;;5.73;3.50;;;22.50;31.60;;;;;;5033192;28;20525;-57
2020/12/11 09:40:51;;;;;;;4.18;2.90;;;22.50;31.60;;;;;;5032613;28;20395;-57
2020/12/11 09:45:57;;;;;;;5.40;3.13;;;22.50;31.60;;;;;;5032544;28;20395;-57
2020/12/11 09:56:31;;;;;;;5.25;3.30;;;22.50;31.70;;;;;;5049613;28;21121;-57
2020/12/11 10:04:22;;;;;;;6.03;3.40;;;22.30;33.40;;;;;;5051790;28;20421;-57
2020/12/11 10:06:48;;;;;;;3.92;3.35;;;22.30;33.60;;;;;;5052145;28;20435;-57
2020/12/11 10:09:17;;;;;;;5.53;3.67;;;22.30;33.90;;;;;;5033692;28;20796;-56
2020/12/11 10:11:43;;;;;;;4.45;3.33;;;22.30;35.20;;;;;;5051993;28;20393;-57
2020/12/11 10:16:42;;;;;;;6.30;3.70;;;22.30;34.10;;;;;;5051886;28;20475;-56
2020/12/11 10:19:10;;;;;;;6.38;3.60;;;22.30;33.80;;;;;;5052336;28;20389;-57
2020/12/11 10:21:36;;;;;;;5.70;3.13;;;22.30;34.70;;;;;;5052430;28;20389;-57
2020/12/11 10:24:03;;;;;;;6.97;2.97;;;22.20;34.60;;;;;;5052213;28;20404;-57
2020/12/11 10:26:30;;;;;;;4.20;2.90;;;22.30;35.10;;;;;;5051589;28;20389;-59
2020/12/11 10:28:57;;;;;;;6.07;3.30;;;22.30;35.50;;;;;;5051893;28;20389;-57
2020/12/11 10:31:33;;;;;;;7.72;3.47;;;22.30;34.70;;;;;;5051847;28;20396;-60
2020/12/11 10:33:59;;;;;;;9.73;5.15;;;22.30;34.30;;;;;;5051955;28;20472;-57
2020/12/11 10:36:31;;;;;;;11.02;5.32;;;22.30;34.10;;;;;;5050751;28;21411;-58
2020/12/11 10:38:59;;;;;;;15.15;5.97;;;22.40;34.60;;;;;;5034094;28;20512;-61
2020/12/11 10:41:31;;;;;;;18.45;6.93;;;22.50;34.10;;;;;;5034356;28;20409;-57
2020/12/11 10:43:59;;;;;;;15.98;7.20;;;22.70;34.20;;;;;;5051444;28;20393;-57
2020/12/11 10:46:26;;;;;;;16.73;7.13;;;22.80;33.90;;;;;;5051366;28;20419;-57
2020/12/11 10:49:04;;;;;;;20.63;8.30;;;23.00;33.80;;;;;;5051817;28;20389;-57
2020/12/11 10:51:31;;;;;;;17.20;7.20;;;23.00;33.60;;;;;;5051562;28;20439;-62
2020/12/11 10:53:59;;;;;;;17.27;6.88;;;22.90;33.70;;;;;;5050876;28;20396;-62
2020/12/11 10:56:25;;;;;;;16.15;6.68;;;22.80;34.00;;;;;;5033361;28;20762;-61
2020/12/11 10:58:51;;;;;;;15.45;5.88;;;22.80;35.00;;;;;;5051642;28;20386;-62
2020/12/11 11:01:17;;;;;;;13.93;6.10;;;22.80;35.30;;;;;;5051962;28;20455;-64
2020/12/11 11:03:43;;;;;;;14.23;5.57;;;22.70;35.10;;;;;;5051856;28;20384;-57
2020/12/11 11:16:52;;;;;;;12.85;5.38;;;22.70;36.80;;;;;;5031210;28;20387;-62
2020/12/11 11:29:21;;;;;;;16.00;4.80;;;22.70;37.20;;;;;;5031382;28;20395;-62
2020/12/11 11:31:47;;;;;;;9.43;4.53;;;22.70;37.00;;;;;;5031463;28;20486;-62
2020/12/11 11:34:12;;;;;;;10.27;4.60;;;22.70;37.70;;;;;;5030218;28;20487;-63
2020/12/11 11:36:38;;;;;;;11.68;4.63;;;22.70;37.30;;;;;;5030806;28;20770;-63
2020/12/11 11:39:04;;;;;;;13.32;4.40;;;22.80;37.00;;;;;;5031380;28;20387;-63
2020/12/11 11:41:48;;;;;;;9.97;4.00;;;22.90;36.90;;;;;;4993070;28;20446;-62
2020/12/11 11:46:49;;;;;;;10.82;4.00;;;23.00;36.40;;;;;;5030799;28;20478;-63
2020/12/11 11:49:20;;;;;;;9.18;3.50;;;23.10;36.30;;;;;;5031362;28;20465;-62
2020/12/11 11:52:08;;;;;;;10.98;3.55;;;23.20;36.60;;;;;;5030667;28;20418;-61
2020/12/11 11:54:38;;;;;;;10.05;3.40;;;23.20;36.30;;;;;;5029243;28;20423;-63
2020/12/11 11:57:04;;;;;;;7.53;3.50;;;23.30;36.70;;;;;;5030077;28;20387;-63
2020/12/11 11:59:29;;;;;;;7.40;3.42;;;23.30;36.50;;;;;;5031140;28;20902;-61
2020/12/11 12:01:55;;;;;;;10.05;3.42;;;23.20;36.40;;;;;;5031101;28;20841;-63
2020/12/11 12:04:21;;;;;;;8.43;3.40;;;23.20;36.10;;;;;;5032944;28;21115;-60
2020/12/11 12:06:47;;;;;;;9.15;3.50;;;23.20;35.90;;;;;;5033362;28;20422;-62
2020/12/11 12:09:13;;;;;;;10.15;3.15;;;23.20;35.60;;;;;;5033669;28;20386;-63
2020/12/11 12:11:38;;;;;;;8.03;3.30;;;23.10;35.80;;;;;;5033349;28;20783;-62
2020/12/11 12:14:04;;;;;;;9.88;3.30;;;23.20;35.80;;;;;;5033158;28;20391;-62
2020/12/11 12:16:31;;;;;;;8.73;3.20;;;23.10;36.00;;;;;;5032702;28;20403;-62
2020/12/11 12:18:58;;;;;;;5.50;2.90;;;23.10;35.80;;;;;;5034332;28;20862;-61
2020/12/11 12:21:37;;;;;;;7.55;3.10;;;23.10;35.80;;;;;;5034760;28;20426;-63
2020/12/11 12:29:45;;;;;;;5.93;2.70;;;23.10;36.20;;;;;;5034248;28;20390;-63
2020/12/11 12:32:13;;;;;;;6.23;2.50;;;23.10;35.40;;;;;;5034113;28;20395;-63
2020/12/11 12:45:04;;;;;;;5.05;2.47;;;23.20;34.90;;;;;;5034031;28;20786;-62
2020/12/11 12:47:29;;;;;;;4.78;2.05;;;23.20;34.70;;;;;;5034315;28;20393;-62
2020/12/11 12:49:55;;;;;;;5.15;2.30;;;23.20;34.70;;;;;;5034365;28;20887;-63
2020/12/11 12:52:21;;;;;;;3.77;2.33;;;23.20;34.70;;;;;;5034138;28;20388;-62
2020/12/11 12:54:46;;;;;;;5.00;2.15;;;23.20;34.90;;;;;;5033660;28;20791;-62
2020/12/11 12:57:59;;;;;;;3.93;2.00;;;23.20;34.90;;;;;;5034158;28;20956;-63
2020/12/11 13:07:20;;;;;;;3.33;2.08;;;23.20;34.50;;;;;;5033850;28;20875;-62
2020/12/11 13:09:46;;;;;;;3.37;2.10;;;23.10;34.90;;;;;;5033984;28;20383;-62
2020/12/11 13:12:12;;;;;;;3.75;2.15;;;23.10;34.80;;;;;;5033544;28;20450;-58
2020/12/11 13:14:37;;;;;;;5.13;2.17;;;23.20;34.80;;;;;;5032563;28;20419;-62
2020/12/11 13:17:03;;;;;;;4.40;2.08;;;23.20;34.80;;;;;;5033675;28;20387;-63
2020/12/11 13:19:31;;;;;;;3.95;2.10;;;23.20;34.90;;;;;;5033592;28;20430;-63
2020/12/11 13:27:32;;;;;;;4.18;2.05;;;23.20;34.70;;;;;;4977273;28;20400;-56
2020/12/11 13:29:58;;;;;;;6.88;2.45;;;23.20;34.40;;;;;;5029094;28;20383;-63
2020/12/11 13:32:27;;;;;;;5.40;2.53;;;23.20;32.80;;;;;;5033204;28;20383;-59
2020/12/11 13:34:52;;;;;;;8.75;2.70;;;23.00;33.20;;;;;;5032956;28;20415;-63
2020/12/11 13:37:18;;;;;;;5.18;2.30;;;23.10;33.40;;;;;;5033351;28;20387;-64
2020/12/11 13:39:44;;;;;;;6.73;2.40;;;23.00;33.70;;;;;;5033409;28;20782;-64
2020/12/11 13:42:10;;;;;;;4.00;2.40;;;23.00;33.50;;;;;;5033270;28;20426;-63
2020/12/11 13:44:35;;;;;;;8.87;2.70;;;23.00;33.30;;;;;;5032925;28;20396;-57
2020/12/11 13:47:04;;;;;;;5.65;2.60;;;23.00;33.50;;;;;;5033218;28;20390;-63
2020/12/11 13:49:33;;;;;;;7.78;2.80;;;23.10;33.60;;;;;;5033180;28;20400;-64
2020/12/11 13:51:59;;;;;;;9.07;2.97;;;23.00;33.20;;;;;;5033087;28;20936;-63
2020/12/11 13:54:25;;;;;;;6.20;2.77;;;23.00;33.50;;;;;;5032918;28;20419;-64
2020/12/11 13:56:51;;;;;;;6.70;2.60;;;23.00;33.50;;;;;;5032403;28;20787;-63
2020/12/11 13:59:17;;;;;;;5.45;2.53;;;23.10;33.30;;;;;;5032921;28;20395;-63
2020/12/11 14:01:46;;;;;;;5.80;2.70;;;23.10;33.10;;;;;;5032898;28;20399;-64
2020/12/11 14:04:12;;;;;;;5.13;2.60;;;23.20;33.00;;;;;;5032974;28;20437;-64